Wetterdaten: Woche 21.09.09 - 27.09.09 (KW39)
Datum Zeit Temp. I. Temp. A. Boden 5 cm Feuchte A. Sonne Luftdruck Regen Wind Zeit Regen
21.09.2009 00:00 22,2 C 15,3 C 15,0 C 91 % 0 % 1015 hPa 0,0 l/m 0,0 km/h (0 Bft) 0,00 h
21.09.2009 01:00 22,2 C 15,1 C 15,2 C 92 % 0 % 1015 hPa 0,0 l/m 0,0 km/h (0 Bft) 0,00 h
21.09.2009 02:00 22,2 C 14,8 C 14,9 C 93 % 0 % 1015 hPa 0,0 l/m 0,0 km/h (0 Bft) 0,00 h
21.09.2009 03:00 22,2 C 14,6 C 14,6 C 94 % 0 % 1015 hPa 0,0 l/m 0,2 km/h (0 Bft) 0,00 h
21.09.2009 04:00 22,2 C 13,9 C 14,1 C 93 % 0 % 1015 hPa 0,0 l/m 0,0 km/h (0 Bft) 0,00 h
21.09.2009 05:00 22,1 C 13,6 C 13,9 C 94 % 0 % 1015 hPa 0,0 l/m 0,0 km/h (0 Bft) 0,00 h
21.09.2009 06:00 22,2 C 13,6 C 14,2 C 94 % 0 % 1016 hPa 0,0 l/m 0,0 km/h (0 Bft) 0,00 h
21.09.2009 07:00 22,4 C 14,0 C 14,1 C 95 % 0 % 1016 hPa 0,0 l/m 0,3 km/h (0 Bft) 0,00 h
21.09.2009 08:00 22,2 C 14,6 C 15,5 C 95 % 0 % 1017 hPa 0,0 l/m 0,3 km/h (0 Bft) 0,00 h
21.09.2009 09:00 22,2 C 15,4 C 16,9 C 95 % 0 % 1017 hPa 0,0 l/m 0,1 km/h (0 Bft) 0,00 h
21.09.2009 10:00 22,2 C 16,1 C 17,8 C 95 % 0 % 1017 hPa 0,0 l/m 0,1 km/h (0 Bft) 0,00 h
21.09.2009 11:00 22,2 C 17,5 C 22,7 C 94 % 0 % 1017 hPa 0,0 l/m 0,4 km/h (0 Bft) 0,00 h
21.09.2009 12:00 22,3 C 19,8 C 24,6 C 89 % 0 % 1017 hPa 0,0 l/m 0,9 km/h (0 Bft) 0,00 h
21.09.2009 13:00 22,3 C 21,4 C 22,3 C 81 % 0 % 1017 hPa 0,0 l/m 2,6 km/h (1 Bft) 0,00 h
21.09.2009 14:00 22,3 C 21,9 C 23,3 C 76 % 0 % 1017 hPa 0,0 l/m 1,6 km/h (1 Bft) 0,00 h
21.09.2009 15:00 22,2 C 21,8 C 25,1 C 74 % 0 % 1016 hPa 0,0 l/m 1,0 km/h (0 Bft) 0,00 h
21.09.2009 16:00 22,3 C 22,1 C 26,5 C 73 % 0 % 1016 hPa 0,0 l/m 0,0 km/h (0 Bft) 0,00 h
21.09.2009 17:00 22,3 C 22,3 C 24,7 C 73 % 0 % 1016 hPa 0,0 l/m 0,0 km/h (0 Bft) 0,00 h
21.09.2009 18:00 22,2 C 21,0 C 20,6 C 76 % 0 % 1016 hPa 0,0 l/m 0,1 km/h (0 Bft) 0,00 h
21.09.2009 19:00 22,2 C 19,2 C 18,2 C 82 % 0 % 1017 hPa 0,0 l/m 0,3 km/h (0 Bft) 0,00 h
21.09.2009 20:00 22,2 C 18,4 C 17,5 C 84 % 0 % 1017 hPa 0,0 l/m 0,0 km/h (0 Bft) 0,00 h
21.09.2009 21:00 22,2 C 17,9 C 17,1 C 87 % 0 % 1017 hPa 0,0 l/m 0,0 km/h (0 Bft) 0,00 h
21.09.2009 22:00 22,2 C 17,2 C 16,2 C 88 % 0 % 1018 hPa 0,0 l/m 0,0 km/h (0 Bft) 0,00 h
21.09.2009 23:00 22,2 C 16,6 C 15,8 C 90 % 0 % 1018 hPa 0,0 l/m 0,0 km/h (0 Bft) 0,00 h
22.09.2009 00:00 22,2 C 16,1 C 15,3 C 91 % 0 % 1018 hPa 0,0 l/m 0,0 km/h (0 Bft) 0,00 h
22.09.2009 01:00 22,2 C 15,7 C 15,0 C 91 % 0 % 1018 hPa 0,0 l/m 0,0 km/h (0 Bft) 0,00 h
22.09.2009 02:00 22,2 C 15,2 C 14,6 C 92 % 0 % 1018 hPa 0,0 l/m 0,0 km/h (0 Bft) 0,00 h
22.09.2009 03:00 22,1 C 14,8 C 14,3 C 92 % 0 % 1018 hPa 0,0 l/m 0,0 km/h (0 Bft) 0,00 h
22.09.2009 04:00 22,1 C 14,4 C 14,1 C 92 % 0 % 1018 hPa 0,0 l/m 0,0 km/h (0 Bft) 0,00 h
22.09.2009 05:00 22,1 C 13,8 C 13,4 C 92 % 0 % 1019 hPa 0,0 l/m 0,0 km/h (0 Bft) 0,00 h
22.09.2009 06:00 22,2 C 13,4 C 13,0 C 93 % 0 % 1019 hPa 0,0 l/m 0,0 km/h (0 Bft) 0,00 h
22.09.2009 07:00 22,4 C 12,6 C 13,2 C 93 % 0 % 1019 hPa 0,0 l/m 0,0 km/h (0 Bft) 0,00 h
22.09.2009 08:00 22,2 C 12,9 C 14,9 C 94 % 0 % 1019 hPa 0,0 l/m 0,0 km/h (0 Bft) 0,00 h
22.09.2009 09:00 22,2 C 13,9 C 17,8 C 94 % 0 % 1020 hPa 0,0 l/m 0,0 km/h (0 Bft) 0,00 h
22.09.2009 10:00 22,3 C 16,3 C 29,1 C 93 % 0 % 1020 hPa 0,0 l/m 0,7 km/h (0 Bft) 0,00 h
22.09.2009 11:00 22,4 C 18,5 C 28,5 C 88 % 0 % 1020 hPa 0,0 l/m 2,1 km/h (1 Bft) 0,00 h
22.09.2009 12:00 22,4 C 20,0 C 25,2 C 82 % 0 % 1020 hPa 0,0 l/m 2,0 km/h (1 Bft) 0,00 h
22.09.2009 13:00 22,4 C 21,2 C 22,3 C 77 % 0 % 1020 hPa 0,0 l/m 2,7 km/h (1 Bft) 0,00 h
22.09.2009 14:00 22,3 C 21,7 C 23,9 C 75 % 0 % 1019 hPa 0,0 l/m 3,0 km/h (1 Bft) 0,00 h
22.09.2009 15:00 22,5 C 22,2 C 29,1 C 71 % 0 % 1019 hPa 0,0 l/m 1,5 km/h (1 Bft) 0,00 h
22.09.2009 16:00 22,4 C 22,3 C 27,6 C 71 % 0 % 1019 hPa 0,0 l/m 0,8 km/h (0 Bft) 0,00 h
22.09.2009 17:00 22,4 C 21,8 C 24,2 C 69 % 0 % 1018 hPa 0,0 l/m 0,1 km/h (0 Bft) 0,00 h
22.09.2009 18:00 22,5 C 20,7 C 20,7 C 71 % 0 % 1018 hPa 0,0 l/m 0,0 km/h (0 Bft) 0,00 h
22.09.2009 19:00 22,4 C 19,1 C 17,6 C 75 % 0 % 1019 hPa 0,0 l/m 0,0 km/h (0 Bft) 0,00 h
22.09.2009 20:00 22,4 C 18,0 C 16,6 C 80 % 0 % 1019 hPa 0,0 l/m 0,0 km/h (0 Bft) 0,00 h
22.09.2009 21:00 22,4 C 17,1 C 16,0 C 84 % 0 % 1020 hPa 0,0 l/m 0,0 km/h (0 Bft) 0,00 h
22.09.2009 22:00 22,4 C 16,3 C 15,4 C 86 % 0 % 1020 hPa 0,0 l/m 0,0 km/h (0 Bft) 0,00 h
22.09.2009 23:00 22,5 C 15,3 C 14,5 C 88 % 0 % 1020 hPa 0,0 l/m 0,0 km/h (0 Bft) 0,00 h
23.09.2009 00:00 22,5 C 14,8 C 14,3 C 89 % 0 % 1020 hPa 0,0 l/m 0,0 km/h (0 Bft) 0,00 h
23.09.2009 01:00 22,5 C 14,5 C 14,1 C 90 % 0 % 1020 hPa 0,0 l/m 0,0 km/h (0 Bft) 0,00 h
23.09.2009 02:00 22,5 C 14,0 C 13,6 C 91 % 0 % 1020 hPa 0,0 l/m 0,0 km/h (0 Bft) 0,00 h
23.09.2009 03:00 22,5 C 13,6 C 13,5 C 92 % 0 % 1020 hPa 0,0 l/m 0,1 km/h (0 Bft) 0,00 h
23.09.2009 04:00 22,5 C 13,3 C 13,0 C 93 % 0 % 1020 hPa 0,0 l/m 0,0 km/h (0 Bft) 0,00 h
23.09.2009 05:00 22,5 C 12,7 C 12,7 C 94 % 0 % 1020 hPa 0,3 l/m 0,0 km/h (0 Bft) 0,05 h
23.09.2009 06:00 22,7 C 12,5 C 12,5 C 95 % 0 % 1020 hPa 0,0 l/m 0,6 km/h (0 Bft) 0,00 h
23.09.2009 07:00 22,8 C 12,6 C 12,6 C 95 % 0 % 1020 hPa 0,0 l/m 0,7 km/h (0 Bft) 0,00 h
23.09.2009 08:00 22,7 C 12,9 C 13,7 C 95 % 0 % 1020 hPa 0,0 l/m 0,2 km/h (0 Bft) 0,00 h
23.09.2009 09:00 22,6 C 13,5 C 14,8 C 95 % 0 % 1021 hPa 0,0 l/m 0,0 km/h (0 Bft) 0,00 h
23.09.2009 10:00 22,6 C 14,9 C 16,7 C 95 % 0 % 1021 hPa 0,0 l/m 0,3 km/h (0 Bft) 0,00 h
23.09.2009 11:00 22,6 C 16,5 C 21,7 C 93 % 0 % 1021 hPa 0,0 l/m 1,1 km/h (1 Bft) 0,00 h
23.09.2009 12:00 22,7 C 18,8 C 23,5 C 87 % 0 % 1021 hPa 0,0 l/m 2,4 km/h (1 Bft) 0,00 h
23.09.2009 13:00 22,7 C 20,4 C 22,0 C 81 % 0 % 1020 hPa 0,0 l/m 1,1 km/h (1 Bft) 0,00 h
23.09.2009 14:00 22,7 C 21,5 C 23,2 C 76 % 0 % 1020 hPa 0,0 l/m 3,9 km/h (1 Bft) 0,00 h
23.09.2009 15:00 22,8 C 21,3 C 23,9 C 75 % 0 % 1019 hPa 0,0 l/m 3,3 km/h (1 Bft) 0,00 h
23.09.2009 16:00 22,6 C 22,1 C 26,5 C 70 % 0 % 1018 hPa 0,0 l/m 3,8 km/h (1 Bft) 0,00 h
23.09.2009 17:00 22,6 C 21,9 C 23,7 C 71 % 0 % 1018 hPa 0,0 l/m 3,1 km/h (1 Bft) 0,00 h
23.09.2009 18:00 22,5 C 20,6 C 20,1 C 75 % 0 % 1018 hPa 0,0 l/m 1,0 km/h (0 Bft) 0,00 h
23.09.2009 19:00 22,6 C 18,8 C 17,3 C 80 % 0 % 1018 hPa 0,0 l/m 0,0 km/h (0 Bft) 0,00 h
23.09.2009 20:00 21,7 C 17,9 C 16,4 C 83 % 0 % 1018 hPa 0,0 l/m 0,0 km/h (0 Bft) 0,00 h
23.09.2009 21:00 22,2 C 17,1 C 15,9 C 86 % 0 % 1018 hPa 0,0 l/m 0,0 km/h (0 Bft) 0,00 h
23.09.2009 22:00 22,4 C 16,3 C 15,6 C 88 % 0 % 1018 hPa 0,0 l/m 0,0 km/h (0 Bft) 0,00 h
23.09.2009 23:00 22,4 C 15,8 C 15,3 C 89 % 0 % 1018 hPa 0,0 l/m 0,0 km/h (0 Bft) 0,00 h
24.09.2009 00:00 22,4 C 15,2 C 14,7 C 90 % 0 % 1018 hPa 0,0 l/m 0,0 km/h (0 Bft) 0,00 h
24.09.2009 01:00 22,4 C 14,7 C 14,1 C 92 % 0 % 1018 hPa 0,0 l/m 0,3 km/h (0 Bft) 0,00 h
24.09.2009 02:00 22,4 C 14,1 C 14,2 C 93 % 0 % 1018 hPa 0,0 l/m 0,0 km/h (0 Bft) 0,00 h
24.09.2009 03:00 22,4 C 13,6 C 13,9 C 93 % 0 % 1017 hPa 0,0 l/m 0,0 km/h (0 Bft) 0,00 h
24.09.2009 04:00 22,4 C 13,0 C 13,7 C 93 % 0 % 1017 hPa 0,0 l/m 0,0 km/h (0 Bft) 0,00 h
24.09.2009 05:00 22,4 C 13,1 C 13,5 C 94 % 0 % 1017 hPa 0,0 l/m 0,0 km/h (0 Bft) 0,00 h
24.09.2009 06:00 22,5 C 13,1 C 13,6 C 94 % 0 % 1017 hPa 0,0 l/m 0,0 km/h (0 Bft) 0,00 h
24.09.2009 07:00 22,7 C 13,0 C 13,4 C 95 % 0 % 1017 hPa 0,0 l/m 0,0 km/h (0 Bft) 0,00 h
24.09.2009 08:00 22,6 C 13,2 C 14,3 C 95 % 0 % 1017 hPa 0,0 l/m 0,0 km/h (0 Bft) 0,00 h
24.09.2009 09:00 22,4 C 14,1 C 16,0 C 95 % 0 % 1017 hPa 0,0 l/m 0,0 km/h (0 Bft) 0,00 h
24.09.2009 10:00 22,4 C 14,9 C 17,2 C 95 % 0 % 1017 hPa 0,0 l/m 0,0 km/h (0 Bft) 0,00 h
24.09.2009 11:00 22,3 C 15,8 C 18,7 C 93 % 0 % 1017 hPa 0,0 l/m 2,6 km/h (1 Bft) 0,00 h
24.09.2009 12:00 22,3 C 17,2 C 21,0 C 90 % 0 % 1017 hPa 0,0 l/m 1,3 km/h (1 Bft) 0,00 h
24.09.2009 13:00 22,3 C 18,8 C 21,4 C 86 % 0 % 1016 hPa 0,0 l/m 4,3 km/h (1 Bft) 0,00 h
24.09.2009 14:00 22,1 C 20,0 C 22,9 C 81 % 0 % 1016 hPa 0,0 l/m 3,9 km/h (1 Bft) 0,00 h
24.09.2009 15:00 22,2 C 20,7 C 25,1 C 71 % 0 % 1015 hPa 0,0 l/m 5,3 km/h (1 Bft) 0,00 h
24.09.2009 16:00 22,2 C 20,7 C 23,5 C 68 % 0 % 1015 hPa 0,0 l/m 7,5 km/h (2 Bft) 0,00 h
24.09.2009 17:00 22,1 C 20,2 C 20,8 C 71 % 0 % 1015 hPa 0,0 l/m 7,1 km/h (2 Bft) 0,00 h
24.09.2009 18:00 22,1 C 18,9 C 18,4 C 77 % 0 % 1014 hPa 0,0 l/m 0,8 km/h (0 Bft) 0,00 h
24.09.2009 19:00 22,2 C 18,0 C 17,4 C 82 % 0 % 1015 hPa 0,0 l/m 2,2 km/h (1 Bft) 0,00 h
24.09.2009 20:00 22,2 C 17,3 C 16,6 C 84 % 0 % 1015 hPa 0,0 l/m 0,0 km/h (0 Bft) 0,00 h
24.09.2009 21:00 22,2 C 16,3 C 15,6 C 86 % 0 % 1016 hPa 0,0 l/m 0,0 km/h (0 Bft) 0,00 h
24.09.2009 22:00 22,1 C 15,5 C 14,9 C 88 % 0 % 1016 hPa 0,0 l/m 0,7 km/h (0 Bft) 0,00 h
24.09.2009 23:00 22,1 C 15,3 C 14,9 C 88 % 0 % 1016 hPa 0,0 l/m 0,9 km/h (0 Bft) 0,00 h
25.09.2009 00:00 22,1 C 14,6 C 13,9 C 90 % 0 % 1016 hPa 0,0 l/m 0,0 km/h (0 Bft) 0,00 h
25.09.2009 01:00 22,1 C 14,1 C 13,6 C 91 % 0 % 1017 hPa 0,0 l/m 0,0 km/h (0 Bft) 0,00 h
25.09.2009 02:00 22,0 C 13,9 C 13,7 C 92 % 0 % 1017 hPa 0,0 l/m 0,1 km/h (0 Bft) 0,00 h
25.09.2009 03:00 22,0 C 13,5 C 12,9 C 92 % 0 % 1017 hPa 0,0 l/m 0,0 km/h (0 Bft) 0,00 h
25.09.2009 04:00 22,0 C 12,5 C 12,3 C 91 % 0 % 1016 hPa 0,0 l/m 0,0 km/h (0 Bft) 0,00 h
25.09.2009 05:00 22,0 C 12,1 C 11,9 C 94 % 0 % 1017 hPa 0,0 l/m 0,3 km/h (0 Bft) 0,00 h
25.09.2009 06:00 22,1 C 12,1 C 11,9 C 93 % 0 % 1017 hPa 0,0 l/m 0,0 km/h (0 Bft) 0,00 h
25.09.2009 07:00 22,2 C 12,1 C 12,3 C 94 % 0 % 1017 hPa 0,0 l/m 0,2 km/h (0 Bft) 0,00 h
25.09.2009 08:00 22,2 C 13,0 C 14,6 C 94 % 0 % 1018 hPa 0,0 l/m 0,0 km/h (0 Bft) 0,00 h
25.09.2009 09:00 22,0 C 14,2 C 16,2 C 93 % 0 % 1018 hPa 0,0 l/m 0,8 km/h (0 Bft) 0,00 h
25.09.2009 10:00 22,1 C 16,1 C 22,2 C 86 % 0 % 1018 hPa 0,0 l/m 6,0 km/h (2 Bft) 0,00 h
25.09.2009 11:00 22,1 C 17,4 C 19,8 C 80 % 0 % 1018 hPa 0,0 l/m 6,0 km/h (2 Bft) 0,00 h
25.09.2009 12:00 22,1 C 17,8 C 19,7 C 79 % 0 % 1018 hPa 0,0 l/m 4,6 km/h (1 Bft) 0,00 h
25.09.2009 13:00 22,2 C 18,8 C 20,0 C 74 % 0 % 1018 hPa 0,0 l/m 9,1 km/h (2 Bft) 0,00 h
25.09.2009 14:00 21,8 C 19,3 C 19,9 C 70 % 0 % 1018 hPa 0,0 l/m 8,0 km/h (2 Bft) 0,00 h
25.09.2009 15:00 21,6 C 19,1 C 20,6 C 69 % 0 % 1017 hPa 0,0 l/m 10,3 km/h (2 Bft) 0,00 h
25.09.2009 16:00 21,9 C 18,2 C 18,4 C 71 % 0 % 1017 hPa 0,0 l/m 12,6 km/h (3 Bft) 0,00 h
25.09.2009 17:00 22,0 C 17,6 C 17,6 C 72 % 0 % 1017 hPa 0,0 l/m 5,6 km/h (1 Bft) 0,00 h
25.09.2009 18:00 22,2 C 16,5 C 15,7 C 75 % 0 % 1017 hPa 0,0 l/m 2,5 km/h (1 Bft) 0,00 h
25.09.2009 19:00 22,2 C 15,6 C 14,5 C 78 % 0 % 1018 hPa 0,0 l/m 3,6 km/h (1 Bft) 0,00 h
25.09.2009 20:00 22,1 C 14,1 C 13,3 C 83 % 0 % 1018 hPa 0,0 l/m 0,0 km/h (0 Bft) 0,00 h
25.09.2009 21:00 22,0 C 13,2 C 12,6 C 86 % 0 % 1019 hPa 0,0 l/m 0,0 km/h (0 Bft) 0,00 h
25.09.2009 22:00 21,9 C 12,4 C 11,8 C 86 % 0 % 1019 hPa 0,0 l/m 0,1 km/h (0 Bft) 0,00 h
25.09.2009 23:00 21,9 C 11,5 C 11,1 C 86 % 0 % 1020 hPa 0,0 l/m 0,1 km/h (0 Bft) 0,00 h
26.09.2009 00:00 21,8 C 10,8 C 10,7 C 86 % 0 % 1020 hPa 0,0 l/m 0,0 km/h (0 Bft) 0,00 h
26.09.2009 01:00 21,8 C 10,3 C 10,3 C 87 % 0 % 1019 hPa 0,0 l/m 0,0 km/h (0 Bft) 0,00 h
26.09.2009 02:00 21,8 C 10,0 C 10,0 C 87 % 0 % 1019 hPa 0,0 l/m 0,1 km/h (0 Bft) 0,00 h
26.09.2009 03:00 21,8 C 10,0 C 9,7 C 86 % 0 % 1019 hPa 0,0 l/m 0,0 km/h (0 Bft) 0,00 h
26.09.2009 04:00 21,8 C 9,5 C 9,5 C 86 % 0 % 1019 hPa 0,0 l/m 0,0 km/h (0 Bft) 0,00 h
26.09.2009 05:00 21,7 C 9,2 C 9,1 C 87 % 0 % 1019 hPa 0,0 l/m 0,0 km/h (0 Bft) 0,00 h
26.09.2009 06:00 21,7 C 9,1 C 8,9 C 87 % 0 % 1019 hPa 0,0 l/m 0,0 km/h (0 Bft) 0,00 h
26.09.2009 07:00 21,7 C 8,9 C 9,7 C 88 % 0 % 1020 hPa 0,0 l/m 0,0 km/h (0 Bft) 0,00 h
26.09.2009 08:00 22,0 C 10,1 C 13,2 C 88 % 0 % 1020 hPa 0,0 l/m 0,0 km/h (0 Bft) 0,00 h
26.09.2009 09:00 21,4 C 12,4 C 27,0 C 84 % 0 % 1020 hPa 0,0 l/m 2,0 km/h (1 Bft) 0,00 h
26.09.2009 10:00 21,9 C 15,0 C 27,4 C 75 % 0 % 1020 hPa 0,0 l/m 9,9 km/h (2 Bft) 0,00 h
26.09.2009 11:00 22,0 C 16,7 C 22,2 C 69 % 0 % 1020 hPa 0,0 l/m 15,4 km/h (3 Bft) 0,00 h
26.09.2009 12:00 22,1 C 17,9 C 21,1 C 65 % 0 % 1019 hPa 0,0 l/m 18,0 km/h (3 Bft) 0,00 h
26.09.2009 13:00 21,9 C 18,7 C 19,0 C 61 % 0 % 1019 hPa 0,0 l/m 16,3 km/h (3 Bft) 0,00 h
26.09.2009 14:00 22,0 C 19,0 C 19,6 C 61 % 0 % 1019 hPa 0,0 l/m 15,9 km/h (3 Bft) 0,00 h
26.09.2009 15:00 21,9 C 19,2 C 21,5 C 61 % 0 % 1018 hPa 0,0 l/m 12,2 km/h (2 Bft) 0,00 h
26.09.2009 16:00 21,7 C 18,8 C 19,9 C 59 % 0 % 1018 hPa 0,0 l/m 15,2 km/h (3 Bft) 0,00 h
26.09.2009 17:00 21,8 C 18,4 C 18,7 C 62 % 0 % 1018 hPa 0,0 l/m 8,5 km/h (2 Bft) 0,00 h
26.09.2009 18:00 21,9 C 16,3 C 15,1 C 71 % 0 % 1018 hPa 0,0 l/m 1,8 km/h (1 Bft) 0,00 h
26.09.2009 19:00 21,6 C 14,3 C 13,1 C 76 % 0 % 1019 hPa 0,0 l/m 2,4 km/h (1 Bft) 0,00 h
26.09.2009 20:00 21,7 C 13,3 C 12,5 C 79 % 0 % 1019 hPa 0,0 l/m 1,9 km/h (1 Bft) 0,00 h
26.09.2009 21:00 21,8 C 13,1 C 11,8 C 79 % 0 % 1019 hPa 0,0 l/m 0,4 km/h (0 Bft) 0,00 h
26.09.2009 22:00 21,8 C 12,6 C 11,5 C 79 % 0 % 1019 hPa 0,0 l/m 0,0 km/h (0 Bft) 0,00 h
26.09.2009 23:00 21,8 C 12,1 C 11,1 C 80 % 0 % 1019 hPa 0,0 l/m 0,0 km/h (0 Bft) 0,00 h
27.09.2009 00:00 21,7 C 11,8 C 10,8 C 81 % 0 % 1019 hPa 0,0 l/m 0,0 km/h (0 Bft) 0,00 h
27.09.2009 01:00 21,7 C 11,4 C 10,5 C 82 % 0 % 1019 hPa 0,0 l/m 0,0 km/h (0 Bft) 0,00 h
27.09.2009 02:00 21,7 C 10,3 C 10,0 C 85 % 0 % 1019 hPa 0,0 l/m 0,0 km/h (0 Bft) 0,00 h
27.09.2009 03:00 21,6 C 10,0 C 9,9 C 86 % 0 % 1018 hPa 0,0 l/m 0,0 km/h (0 Bft) 0,00 h
27.09.2009 04:00 21,6 C 9,5 C 9,5 C 87 % 0 % 1019 hPa 0,0 l/m 0,0 km/h (0 Bft) 0,00 h
27.09.2009 05:00 21,6 C 9,3 C 9,3 C 88 % 0 % 1019 hPa 0,0 l/m 0,0 km/h (0 Bft) 0,00 h
27.09.2009 06:00 21,6 C 9,2 C 9,0 C 88 % 0 % 1019 hPa 0,0 l/m 0,0 km/h (0 Bft) 0,00 h
27.09.2009 07:00 21,5 C 8,9 C 9,2 C 89 % 0 % 1019 hPa 0,0 l/m 0,0 km/h (0 Bft) 0,00 h
27.09.2009 08:00 21,6 C 9,6 C 11,4 C 89 % 0 % 1019 hPa 0,0 l/m 0,0 km/h (0 Bft) 0,00 h
27.09.2009 09:00 21,8 C 11,9 C 26,3 C 87 % 0 % 1019 hPa 0,0 l/m 0,8 km/h (0 Bft) 0,00 h
27.09.2009 10:00 20,6 C 13,8 C 31,2 C 84 % 0 % 1020 hPa 0,0 l/m 0,6 km/h (0 Bft) 0,00 h
27.09.2009 11:00 22,0 C 15,9 C 23,4 C 77 % 0 % 1020 hPa 0,0 l/m 6,3 km/h (2 Bft) 0,00 h
27.09.2009 12:00 22,2 C 17,3 C 20,9 C 73 % 0 % 1019 hPa 0,0 l/m 7,7 km/h (2 Bft) 0,00 h
27.09.2009 13:00 22,0 C 18,4 C 19,1 C 71 % 0 % 1019 hPa 0,0 l/m 4,2 km/h (1 Bft) 0,00 h
27.09.2009 14:00 22,0 C 19,0 C 21,1 C 70 % 0 % 1018 hPa 0,0 l/m 1,1 km/h (1 Bft) 0,00 h
27.09.2009 15:00 22,0 C 19,6 C 27,0 C 67 % 0 % 1018 hPa 0,0 l/m 2,1 km/h (1 Bft) 0,00 h
27.09.2009 16:00 21,8 C 19,6 C 24,7 C 68 % 0 % 1018 hPa 0,0 l/m 1,1 km/h (1 Bft) 0,00 h
27.09.2009 17:00 21,9 C 19,5 C 23,0 C 67 % 0 % 1018 hPa 0,0 l/m 0,0 km/h (0 Bft) 0,00 h
27.09.2009 18:00 21,8 C 18,1 C 18,1 C 72 % 0 % 1018 hPa 0,0 l/m 0,0 km/h (0 Bft) 0,00 h
27.09.2009 19:00 21,8 C 16,4 C 14,6 C 75 % 0 % 1018 hPa 0,0 l/m 0,0 km/h (0 Bft) 0,00 h
27.09.2009 20:00 21,7 C 15,2 C 13,7 C 79 % 0 % 1018 hPa 0,0 l/m 0,0 km/h (0 Bft) 0,00 h
27.09.2009 21:00 21,8 C 14,4 C 13,1 C 81 % 0 % 1018 hPa 0,0 l/m 0,0 km/h (0 Bft) 0,00 h
27.09.2009 22:00 21,7 C 13,5 C 12,6 C 84 % 0 % 1018 hPa 0,0 l/m 0,0 km/h (0 Bft) 0,00 h
27.09.2009 23:00 21,7 C 12,9 C 12,3 C 86 % 0 % 1018 hPa 0,0 l/m 0,0 km/h (0 Bft) 0,00 h
Min-Datum _ 27.09.09 26.09.09 27.09.09 26.09.09 - 21.09.09 - 21.09.09 -
_ Min-Zeit 10:14 07:11 06:44 13:56 - 00:02 - 00:02 -
Minimum _ 20,0 C 8,7 C 8,3 C 58 % - 1014 hPa - 0,0 km/h (0 Bft) -
Max-Datum _ 23.09.09 21.09.09 22.09.09 23.09.09 21.09.09 23.09.09 23.09.09 26.09.09 23.09.09
_ Max-Zeit 07:05 17:35 11:44 09:38 00:02 08:59 05:20 12:50 05:20
Maximum _ 23,0 C 22,5 C 33,9 C 96 % 0 % 1021 hPa 0,3 l/m 23,8 km/h
O-SO (4 Bft)
0,05 h
Durchschnitt _ 22,1 C 15,7 C 16,9 C 84 % #0 min. 1018 hPa #0,3 l/m 1,7 km/h (1 Bft) #3 min.